createdAt,value
2022-12-28T00:00:09.980Z,99322.02
2022-12-28T00:02:39.964Z,99317.81
2022-12-28T00:05:07.060Z,99321.37
2022-12-28T00:07:34.311Z,99330.54
2022-12-28T00:10:01.358Z,99321.94
2022-12-28T00:12:29.406Z,99322.64
2022-12-28T00:14:56.370Z,99325.56
2022-12-28T00:17:23.364Z,99333.41
2022-12-28T00:19:50.413Z,99337.74
2022-12-28T00:22:17.420Z,99334.98
2022-12-28T00:24:44.474Z,99332.36
2022-12-28T00:27:11.408Z,99339.89
2022-12-28T00:29:38.453Z,99341.52
2022-12-28T00:32:05.663Z,99346.27
2022-12-28T00:34:32.616Z,99346.94
2022-12-28T00:37:09.696Z,99349.87
2022-12-28T00:39:40.704Z,99348.35
2022-12-28T00:42:07.625Z,99343.73
2022-12-28T00:44:34.516Z,99349.05
2022-12-28T00:47:01.507Z,99347.50
2022-12-28T00:49:28.403Z,99351.70
2022-12-28T00:51:55.389Z,99348.91
2022-12-28T00:54:23.037Z,99342.92
2022-12-28T00:56:49.996Z,99338.08
2022-12-28T00:59:17.660Z,99329.85
2022-12-28T01:01:44.686Z,99344.29
2022-12-28T01:04:11.974Z,99345.26
2022-12-28T01:06:40.079Z,99354.45
2022-12-28T01:09:07.092Z,99346.18
2022-12-28T01:11:34.028Z,99336.99
2022-12-28T01:14:01.836Z,99351.55
2022-12-28T01:16:30.761Z,99352.58
2022-12-28T01:18:59.493Z,99353.14
2022-12-28T01:21:28.201Z,99352.92
2022-12-28T01:23:56.644Z,99346.17
2022-12-28T01:26:24.599Z,99353.49
2022-12-28T01:28:51.588Z,99362.25
2022-12-28T01:31:19.400Z,99361.52
2022-12-28T01:33:46.537Z,99359.21
2022-12-28T01:36:15.559Z,99367.02
2022-12-28T01:38:43.416Z,99367.45
2022-12-28T01:41:11.437Z,99365.11
2022-12-28T01:43:43.248Z,99365.18
2022-12-28T01:46:12.191Z,99374.29
2022-12-28T01:48:44.144Z,99370.31
2022-12-28T01:51:12.271Z,99370.52
2022-12-28T01:53:39.111Z,99376.72
2022-12-28T01:56:06.309Z,99380.83
2022-12-28T01:58:33.434Z,99379.20
2022-12-28T02:01:01.354Z,99382.82
2022-12-28T02:03:29.463Z,99372.46
2022-12-28T02:05:57.825Z,99374.98
2022-12-28T02:08:27.716Z,99372.08
2022-12-28T02:10:54.601Z,99366.71
2022-12-28T02:13:22.413Z,99366.69
2022-12-28T02:15:49.500Z,99375.61
2022-12-28T02:18:17.569Z,99377.46
2022-12-28T02:20:57.222Z,99379.23
2022-12-28T02:23:27.948Z,99380.47
2022-12-28T02:26:09.891Z,99380.60
2022-12-28T02:29:13.447Z,99382.25
2022-12-28T02:31:48.485Z,99386.48
2022-12-28T02:34:25.875Z,99383.99
2022-12-28T02:36:55.953Z,99381.11
2022-12-28T02:39:44.855Z,99381.30
2022-12-28T02:42:11.929Z,99379.91
2022-12-28T02:44:57.910Z,99378.90
2022-12-28T02:47:43.751Z,99374.77
2022-12-28T02:50:12.303Z,99381.04
2022-12-28T02:53:15.289Z,99383.96
2022-12-28T02:56:08.196Z,99380.58
2022-12-28T02:59:15.913Z,99385.09
2022-12-28T03:02:11.101Z,99386.50
2022-12-28T03:04:49.526Z,99384.74
2022-12-28T03:07:40.030Z,99387.39
2022-12-28T03:11:19.464Z,99390.63
2022-12-28T03:13:56.858Z,99397.61
2022-12-28T03:16:28.874Z,99397.10
2022-12-28T03:19:25.470Z,99402.35
2022-12-28T03:22:12.898Z,99400.05
2022-12-28T03:25:01.470Z,99407.52
2022-12-28T03:27:48.244Z,99414.91
2022-12-28T03:30:38.392Z,99416.36
2022-12-28T03:33:05.955Z,99411.88
2022-12-28T03:36:13.328Z,99417.75
2022-12-28T03:39:10.039Z,99419.05
2022-12-28T03:42:19.671Z,99414.70
2022-12-28T03:44:50.914Z,99416.16
2022-12-28T03:47:18.091Z,99419.85
2022-12-28T03:49:45.829Z,99429.77
2022-12-28T03:52:12.911Z,99426.05
2022-12-28T03:54:40.840Z,99424.55
2022-12-28T03:57:08.472Z,99433.48
2022-12-28T03:59:38.593Z,99431.36
2022-12-28T04:02:05.845Z,99434.33
2022-12-28T04:04:33.431Z,99435.10
2022-12-28T04:07:00.522Z,99443.16
2022-12-28T04:09:27.635Z,99448.34
2022-12-28T04:11:54.832Z,99452.52
2022-12-28T04:14:27.570Z,99460.33
2022-12-28T04:16:54.774Z,99465.23
2022-12-28T04:19:21.785Z,99471.85
2022-12-28T04:21:48.994Z,99470.29
2022-12-28T04:24:15.928Z,99470.60
2022-12-28T04:26:43.006Z,99468.98
2022-12-28T04:29:10.355Z,99468.64
2022-12-28T04:31:58.187Z,99466.66
2022-12-28T04:34:25.693Z,99467.66
2022-12-28T04:37:12.977Z,99466.83
2022-12-28T04:39:54.662Z,99468.08
2022-12-28T04:42:24.767Z,99474.89
2022-12-28T04:44:51.724Z,99475.77
2022-12-28T04:47:18.634Z,99483.70
2022-12-28T04:49:45.519Z,99481.77
2022-12-28T04:52:12.427Z,99478.36
2022-12-28T04:54:39.342Z,99487.45
2022-12-28T04:57:07.071Z,99489.17
2022-12-28T04:59:34.066Z,99483.92
2022-12-28T05:02:01.121Z,99487.98
2022-12-28T05:04:28.153Z,99492.75
2022-12-28T05:06:55.058Z,99489.84
2022-12-28T05:09:22.068Z,99485.13
2022-12-28T05:11:48.988Z,99488.38
2022-12-28T05:14:15.993Z,99483.54
2022-12-28T05:16:42.900Z,99479.84
2022-12-28T05:19:09.794Z,99486.13
2022-12-28T05:21:36.781Z,99496.13
2022-12-28T05:24:04.268Z,99488.33
2022-12-28T05:26:31.212Z,99499.13
2022-12-28T05:28:59.024Z,99508.29
2022-12-28T05:31:26.523Z,99507.34
2022-12-28T05:33:54.057Z,99503.16
2022-12-28T05:36:25.597Z,99510.76
2022-12-28T05:38:53.424Z,99515.20
2022-12-28T05:41:25.156Z,99517.58
2022-12-28T05:43:52.330Z,99516.95
2022-12-28T05:46:21.198Z,99518.09
2022-12-28T05:48:48.292Z,99522.31
2022-12-28T05:51:17.334Z,99525.88
2022-12-28T05:53:44.428Z,99528.45
2022-12-28T05:56:16.391Z,99528.14
2022-12-28T05:58:44.227Z,99527.34
2022-12-28T06:01:17.204Z,99523.66
2022-12-28T06:03:44.913Z,99532.75
2022-12-28T06:06:13.864Z,99538.89
2022-12-28T06:08:41.216Z,99533.90
2022-12-28T06:11:09.625Z,99538.69
2022-12-28T06:13:36.817Z,99541.91
2022-12-28T06:16:08.096Z,99542.08
2022-12-28T06:18:35.252Z,99544.45
2022-12-28T06:21:07.596Z,99535.91
2022-12-28T06:23:34.624Z,99542.59
2022-12-28T06:26:02.572Z,99543.77
2022-12-28T06:28:29.479Z,99550.64
2022-12-28T06:31:11.283Z,99552.65
2022-12-28T06:33:38.232Z,99549.80
2022-12-28T06:36:05.955Z,99553.77
2022-12-28T06:38:34.503Z,99553.52
2022-12-28T06:41:13.310Z,99546.11
2022-12-28T06:43:41.992Z,99559.56
2022-12-28T06:46:09.404Z,99557.34
2022-12-28T06:48:36.833Z,99566.45
2022-12-28T06:51:08.630Z,99559.50
2022-12-28T06:53:37.050Z,99563.30
2022-12-28T06:56:15.036Z,99565.59
2022-12-28T06:58:42.271Z,99571.55
2022-12-28T07:01:16.983Z,99575.00
2022-12-28T07:03:45.013Z,99571.66
2022-12-28T07:06:13.037Z,99570.93
2022-12-28T07:08:40.503Z,99567.02
2022-12-28T07:11:09.616Z,99567.55
2022-12-28T07:13:36.542Z,99574.46
2022-12-28T07:16:04.953Z,99578.81
2022-12-28T07:18:32.989Z,99573.05
2022-12-28T07:21:03.716Z,99570.92
2022-12-28T07:23:31.586Z,99573.73
2022-12-28T07:25:58.832Z,99580.87
2022-12-28T07:28:25.889Z,99577.17
2022-12-28T07:30:52.964Z,99580.67
2022-12-28T07:33:19.944Z,99576.52
2022-12-28T07:35:46.842Z,99583.33
2022-12-28T07:38:17.951Z,99579.65
2022-12-28T07:40:48.129Z,99573.40
2022-12-28T07:43:15.138Z,99582.48
2022-12-28T07:45:42.103Z,99586.75
2022-12-28T07:48:09.131Z,99580.72
2022-12-28T07:50:38.116Z,99586.72
2022-12-28T07:53:05.309Z,99582.86
2022-12-28T07:55:32.286Z,99590.96
2022-12-28T07:57:59.212Z,99586.20
2022-12-28T08:00:26.474Z,99587.27
2022-12-28T08:02:56.527Z,99595.04
2022-12-28T08:05:23.593Z,99603.09
2022-12-28T08:07:50.626Z,99605.45
2022-12-28T08:10:17.505Z,99610.39
2022-12-28T08:12:44.323Z,99606.13
2022-12-28T08:15:11.556Z,99597.77
2022-12-28T08:17:38.611Z,99598.58
2022-12-28T08:20:06.250Z,99603.15
2022-12-28T08:22:33.741Z,99603.26
2022-12-28T08:25:00.646Z,99597.27
2022-12-28T08:27:27.532Z,99598.86
2022-12-28T08:29:54.655Z,99603.33
2022-12-28T08:32:21.553Z,99599.56
2022-12-28T08:34:48.450Z,99607.42
2022-12-28T08:37:15.342Z,99601.80
2022-12-28T08:39:42.243Z,99602.44
2022-12-28T08:42:09.170Z,99608.48
2022-12-28T08:44:36.048Z,99600.86
2022-12-28T08:47:03.017Z,99601.52
2022-12-28T08:49:30.114Z,99593.43
2022-12-28T08:51:57.097Z,99591.82
2022-12-28T08:54:24.203Z,99595.15
2022-12-28T08:56:52.997Z,99591.13
2022-12-28T08:59:19.937Z,99591.30
2022-12-28T09:01:47.487Z,99591.76
2022-12-28T09:04:21.920Z,99588.15
2022-12-28T09:06:49.233Z,99586.73
2022-12-28T09:09:17.595Z,99590.91
2022-12-28T09:11:44.915Z,99582.15
2022-12-28T09:14:20.386Z,99592.64
2022-12-28T09:16:49.434Z,99583.86
2022-12-28T09:19:16.498Z,99584.31
2022-12-28T09:21:45.106Z,99581.89
2022-12-28T09:24:12.879Z,99587.02
2022-12-28T09:26:40.020Z,99577.95
2022-12-28T09:29:09.046Z,99587.82
2022-12-28T09:31:37.596Z,99590.86
2022-12-28T09:36:52.654Z,99603.29
2022-12-28T09:39:21.021Z,99602.31
2022-12-28T09:41:55.205Z,99606.91
2022-12-28T09:44:53.820Z,99603.20
2022-12-28T09:47:23.839Z,99603.93
2022-12-28T09:50:09.838Z,99603.58
2022-12-28T09:52:37.507Z,99606.48
2022-12-28T09:55:12.630Z,99601.31
2022-12-28T09:57:42.527Z,99603.25
2022-12-28T10:00:17.058Z,99602.17
2022-12-28T10:02:45.931Z,99600.70
2022-12-28T10:05:13.045Z,99601.14
2022-12-28T10:07:39.889Z,99602.40
2022-12-28T10:10:07.475Z,99609.23
2022-12-28T10:12:34.371Z,99607.77
2022-12-28T10:15:01.508Z,99611.89
2022-12-28T10:17:30.477Z,99614.14
2022-12-28T10:19:58.276Z,99621.97
2022-12-28T10:22:25.817Z,99620.01
2022-12-28T10:24:52.864Z,99619.77
2022-12-28T10:27:30.595Z,99617.69
2022-12-28T10:29:59.450Z,99611.88
2022-12-28T10:32:26.520Z,99609.38
2022-12-28T10:35:01.101Z,99609.08
2022-12-28T10:37:30.460Z,99602.73
2022-12-28T10:39:59.198Z,99601.86
2022-12-28T10:42:29.739Z,99597.20
2022-12-28T10:45:00.802Z,99596.38
2022-12-28T10:47:35.763Z,99593.99
2022-12-28T10:50:36.040Z,99599.88
2022-12-28T10:52:58.016Z,99599.11
2022-12-28T10:55:30.211Z,99600.77
2022-12-28T10:58:33.725Z,99595.65
2022-12-28T11:01:04.556Z,99593.80
2022-12-28T11:03:35.577Z,99591.10
2022-12-28T11:06:09.827Z,99598.13
2022-12-28T11:08:37.907Z,99592.10
2022-12-28T11:11:04.973Z,99591.70
2022-12-28T11:13:32.017Z,99586.16
2022-12-28T11:15:59.710Z,99586.04
2022-12-28T11:18:26.713Z,99572.40
2022-12-28T11:20:55.236Z,99568.25
2022-12-28T11:23:31.837Z,99563.54
2022-12-28T11:25:59.136Z,99558.55
2022-12-28T11:28:26.019Z,99560.63
2022-12-28T11:30:53.083Z,99556.56
2022-12-28T11:33:38.306Z,99559.63
2022-12-28T11:36:09.850Z,99565.03
2022-12-28T11:38:44.043Z,99567.06
2022-12-28T11:41:37.224Z,99562.31
2022-12-28T11:44:05.510Z,99569.36
2022-12-28T11:46:35.632Z,99569.14
2022-12-28T11:49:04.396Z,99566.60
2022-12-28T11:51:35.626Z,99568.43
2022-12-28T11:54:04.427Z,99567.78
2022-12-28T11:56:43.578Z,99562.95
2022-12-28T11:59:33.669Z,99559.96
2022-12-28T12:02:23.472Z,99554.18
2022-12-28T12:04:50.335Z,99550.63
2022-12-28T12:07:31.220Z,99556.90
2022-12-28T12:10:34.351Z,99560.66
2022-12-28T12:13:02.466Z,99559.99
2022-12-28T12:15:40.472Z,99560.95
2022-12-28T12:18:09.435Z,99560.05
2022-12-28T12:20:39.482Z,99558.73
2022-12-28T12:23:08.709Z,99556.23
2022-12-28T12:25:39.618Z,99562.29
2022-12-28T12:28:20.110Z,99562.95
2022-12-28T12:30:47.173Z,99567.20
2022-12-28T12:33:16.793Z,99565.67
2022-12-28T12:35:56.829Z,99570.38
2022-12-28T12:38:43.544Z,99571.95
2022-12-28T12:41:32.050Z,99584.80
2022-12-28T12:44:03.556Z,99577.33
2022-12-28T12:47:05.472Z,99575.88
2022-12-28T12:49:51.605Z,99573.58
2022-12-28T12:52:49.799Z,99576.06
2022-12-28T12:55:39.129Z,99569.30
2022-12-28T12:58:38.689Z,99568.14
2022-12-28T13:01:15.739Z,99567.17
2022-12-28T13:03:47.281Z,99568.34
2022-12-28T13:06:16.511Z,99567.42
2022-12-28T13:09:04.949Z,99570.43
2022-12-28T13:11:36.002Z,99568.59
2022-12-28T13:14:03.015Z,99561.73
2022-12-28T13:16:30.286Z,99565.84
2022-12-28T13:18:58.335Z,99566.44
2022-12-28T13:21:27.310Z,99568.50
2022-12-28T13:23:54.392Z,99571.09
2022-12-28T13:26:28.139Z,99564.23
2022-12-28T13:29:02.814Z,99563.47
2022-12-28T13:31:36.522Z,99560.35
2022-12-28T13:34:24.040Z,99559.00
2022-12-28T13:36:59.433Z,99557.09
2022-12-28T13:39:28.367Z,99558.39
2022-12-28T13:41:56.299Z,99557.61
2022-12-28T13:44:28.145Z,99552.36
2022-12-28T13:47:04.882Z,99553.14
2022-12-28T13:49:35.497Z,99549.27
2022-12-28T13:52:07.019Z,99555.80
2022-12-28T13:54:33.899Z,99560.11
2022-12-28T13:57:20.834Z,99560.67
2022-12-28T13:59:47.849Z,99559.05
2022-12-28T14:02:16.774Z,99556.51
2022-12-28T14:04:52.741Z,99561.28
2022-12-28T14:07:20.583Z,99563.45
2022-12-28T14:09:47.513Z,99564.61
2022-12-28T14:12:14.595Z,99566.02
2022-12-28T14:14:41.689Z,99565.84
2022-12-28T14:17:08.668Z,99565.30
2022-12-28T14:19:35.590Z,99564.61
2022-12-28T14:22:02.572Z,99567.31
2022-12-28T14:24:29.598Z,99567.73
2022-12-28T14:26:58.139Z,99564.24
2022-12-28T14:29:32.824Z,99562.02
2022-12-28T14:32:07.081Z,99567.38
2022-12-28T14:34:34.950Z,99568.04
2022-12-28T14:37:02.329Z,99565.65
2022-12-28T14:39:31.546Z,99563.77
2022-12-28T14:41:58.776Z,99562.05
2022-12-28T14:44:28.701Z,99561.02
2022-12-28T14:46:55.874Z,99560.67
2022-12-28T14:49:28.929Z,99559.42
2022-12-28T14:51:56.388Z,99561.45
2022-12-28T14:54:26.807Z,99559.02
2022-12-28T14:56:55.034Z,99565.13
2022-12-28T14:59:40.100Z,99564.22
2022-12-28T15:02:33.316Z,99564.17
2022-12-28T15:05:01.470Z,99562.86
2022-12-28T15:07:28.364Z,99563.95
2022-12-28T15:09:55.303Z,99565.21
2022-12-28T15:12:22.885Z,99562.71
2022-12-28T15:14:50.121Z,99559.97
2022-12-28T15:17:17.073Z,99560.27
2022-12-28T15:19:45.222Z,99557.19
2022-12-28T15:22:12.727Z,99562.20
2022-12-28T15:24:41.492Z,99557.36
2022-12-28T15:27:08.712Z,99556.02
2022-12-28T15:32:22.458Z,99556.50
2022-12-28T15:34:49.393Z,99558.76
2022-12-28T15:37:16.311Z,99555.56
2022-12-28T15:39:43.212Z,99554.95
2022-12-28T15:42:10.106Z,99557.15
2022-12-28T15:44:37.177Z,99554.48
2022-12-28T15:47:04.152Z,99551.98
2022-12-28T15:49:31.021Z,99549.08
2022-12-28T15:51:58.009Z,99540.88
2022-12-28T15:54:24.945Z,99540.51
2022-12-28T15:56:53.368Z,99539.56
2022-12-28T15:59:20.521Z,99542.59
2022-12-28T16:01:48.309Z,99541.75
2022-12-28T16:04:15.458Z,99537.67
2022-12-28T16:06:45.115Z,99537.98
2022-12-28T16:09:13.034Z,99536.37
2022-12-28T16:11:40.233Z,99538.34
2022-12-28T16:14:07.753Z,99539.51
2022-12-28T16:16:36.407Z,99541.83
2022-12-28T16:19:03.630Z,99541.13
2022-12-28T16:21:30.624Z,99542.84
2022-12-28T16:23:58.887Z,99540.88
2022-12-28T16:26:25.816Z,99538.55
2022-12-28T16:28:52.819Z,99536.39
2022-12-28T16:31:24.007Z,99533.39
2022-12-28T16:33:55.120Z,99530.94
2022-12-28T16:36:22.319Z,99529.52
2022-12-28T16:38:49.279Z,99520.17
2022-12-28T16:41:16.339Z,99523.24
2022-12-28T16:43:43.217Z,99518.98
2022-12-28T16:46:10.403Z,99520.13
2022-12-28T16:48:37.591Z,99514.77
2022-12-28T16:51:04.638Z,99509.42
2022-12-28T16:53:33.629Z,99508.98
2022-12-28T16:56:01.438Z,99502.77
2022-12-28T16:58:29.277Z,99499.50
2022-12-28T17:00:56.636Z,99499.55
2022-12-28T17:03:27.912Z,99501.85
2022-12-28T17:05:54.898Z,99496.15
2022-12-28T17:08:21.792Z,99496.37
2022-12-28T17:10:48.689Z,99495.58
2022-12-28T17:13:16.457Z,99496.13
2022-12-28T17:15:45.957Z,99496.17
2022-12-28T17:18:13.681Z,99494.86
2022-12-28T17:20:41.039Z,99491.95
2022-12-28T17:23:08.013Z,99494.27
2022-12-28T17:25:35.375Z,99492.77
2022-12-28T17:28:02.552Z,99496.23
2022-12-28T17:30:29.746Z,99489.77
2022-12-28T17:32:56.714Z,99488.02
2022-12-28T17:35:23.848Z,99488.91
2022-12-28T17:37:50.959Z,99483.09
2022-12-28T17:40:17.925Z,99485.39
2022-12-28T17:42:44.956Z,99483.08
2022-12-28T17:45:12.343Z,99478.06
2022-12-28T17:47:39.312Z,99474.27
2022-12-28T17:50:06.904Z,99482.64
2022-12-28T17:52:33.763Z,99481.74
2022-12-28T17:55:00.611Z,99483.73
2022-12-28T17:57:27.538Z,99476.20
2022-12-28T17:59:54.450Z,99474.44
2022-12-28T18:02:21.517Z,99472.23
2022-12-28T18:04:48.672Z,99475.05
2022-12-28T18:07:15.552Z,99472.17
2022-12-28T18:09:42.595Z,99473.04
2022-12-28T18:12:09.553Z,99463.64
2022-12-28T18:14:36.479Z,99464.56
2022-12-28T18:17:03.822Z,99461.83
2022-12-28T18:19:30.800Z,99460.73
2022-12-28T18:21:57.676Z,99459.17
2022-12-28T18:24:24.779Z,99461.45
2022-12-28T18:26:51.650Z,99466.98
2022-12-28T18:29:18.660Z,99468.86
2022-12-28T18:31:45.734Z,99462.73
2022-12-28T18:34:12.734Z,99456.33
2022-12-28T18:36:39.659Z,99452.40
2022-12-28T18:39:06.676Z,99449.45
2022-12-28T18:41:34.511Z,99445.67
2022-12-28T18:44:02.999Z,99447.02
2022-12-28T18:46:30.342Z,99446.86
2022-12-28T18:48:57.411Z,99447.04
2022-12-28T18:51:24.445Z,99445.22
2022-12-28T18:53:51.573Z,99442.63
2022-12-28T18:56:19.780Z,99434.55
2022-12-28T18:58:51.400Z,99432.21
2022-12-28T19:04:10.055Z,99426.27
2022-12-28T19:06:37.525Z,99430.64
2022-12-28T19:09:04.633Z,99427.28
2022-12-28T19:11:31.751Z,99435.83
2022-12-28T19:13:58.755Z,99436.14
2022-12-28T19:16:31.019Z,99434.59
2022-12-28T19:18:59.325Z,99434.52
2022-12-28T19:21:30.206Z,99429.48
2022-12-28T19:24:04.685Z,99428.10
2022-12-28T19:26:32.090Z,99427.15
2022-12-28T19:28:59.397Z,99426.13
2022-12-28T19:31:26.995Z,99423.89
2022-12-28T19:33:54.083Z,99419.50
2022-12-28T19:36:21.522Z,99421.38
2022-12-28T19:38:48.630Z,99421.27
2022-12-28T19:41:16.319Z,99424.14
2022-12-28T19:43:43.649Z,99428.31
2022-12-28T19:46:12.965Z,99427.92
2022-12-28T19:48:40.047Z,99432.55
2022-12-28T19:51:09.698Z,99426.71
2022-12-28T19:53:37.573Z,99425.92
2022-12-28T19:56:09.261Z,99422.95
2022-12-28T19:58:39.388Z,99417.84
2022-12-28T20:01:08.074Z,99418.10
2022-12-28T20:03:35.212Z,99415.77
2022-12-28T20:06:09.362Z,99413.98
2022-12-28T20:08:36.373Z,99411.25
2022-12-28T20:11:03.744Z,99405.96
2022-12-28T20:13:31.572Z,99409.40
2022-12-28T20:15:58.761Z,99403.23
2022-12-28T20:18:25.814Z,99397.89
2022-12-28T20:21:18.670Z,99392.86
2022-12-28T20:23:39.839Z,99393.16
2022-12-28T20:26:06.853Z,99391.49
2022-12-28T20:28:34.587Z,99393.05
2022-12-28T20:31:04.674Z,99390.98
2022-12-28T20:33:38.061Z,99381.82
2022-12-28T20:36:09.140Z,99385.16
2022-12-28T20:38:39.837Z,99387.10
2022-12-28T20:41:37.132Z,99376.62
2022-12-28T20:44:07.451Z,99377.75
2022-12-28T20:46:37.861Z,99379.74
2022-12-28T20:49:07.866Z,99386.59
2022-12-28T20:51:38.835Z,99393.59
2022-12-28T20:54:09.808Z,99392.55
2022-12-28T20:56:41.938Z,99395.17
2022-12-28T20:59:11.776Z,99397.02
2022-12-28T21:01:41.927Z,99396.84
2022-12-28T21:04:11.442Z,99400.34
2022-12-28T21:06:40.858Z,99401.48
2022-12-28T21:09:10.180Z,99401.64
2022-12-28T21:11:38.984Z,99405.43
2022-12-28T21:14:08.869Z,99400.35
2022-12-28T21:16:37.822Z,99394.16
2022-12-28T21:19:07.144Z,99392.39
2022-12-28T21:21:36.501Z,99389.89
2022-12-28T21:24:06.351Z,99384.59
2022-12-28T21:26:35.884Z,99383.83
2022-12-28T21:36:39.792Z,99384.55
2022-12-28T21:39:06.807Z,99382.59
2022-12-28T21:41:49.042Z,99381.79
2022-12-28T21:44:22.819Z,99372.58
2022-12-28T21:46:51.356Z,99372.94
2022-12-28T21:49:19.341Z,99367.94
2022-12-28T21:51:46.391Z,99374.96
2022-12-28T21:54:14.495Z,99374.30
2022-12-28T21:56:42.632Z,99371.36
2022-12-28T21:59:11.195Z,99376.69
2022-12-28T22:01:57.563Z,99370.78
2022-12-28T22:04:43.712Z,99370.66
2022-12-28T22:07:11.675Z,99365.09
2022-12-28T22:09:58.080Z,99366.32
2022-12-28T22:12:34.795Z,99365.84
2022-12-28T22:15:32.135Z,99360.46
2022-12-28T22:18:02.336Z,99356.71
2022-12-28T22:20:29.411Z,99352.11
2022-12-28T22:22:58.444Z,99350.13
2022-12-28T22:25:26.023Z,99352.09
2022-12-28T22:27:52.922Z,99344.14
2022-12-28T22:30:20.140Z,99340.23
2022-12-28T22:32:47.032Z,99345.45
2022-12-28T22:35:14.222Z,99340.58
2022-12-28T22:37:43.012Z,99338.94
2022-12-28T22:40:10.712Z,99336.81
2022-12-28T22:42:43.540Z,99337.74
2022-12-28T22:45:14.804Z,99328.42
2022-12-28T22:47:41.710Z,99326.93
2022-12-28T22:50:10.209Z,99320.21
2022-12-28T22:52:37.137Z,99319.14
2022-12-28T22:55:04.728Z,99319.98
2022-12-28T22:57:31.662Z,99318.79
2022-12-28T22:59:58.637Z,99318.51
2022-12-28T23:02:25.557Z,99312.00
2022-12-28T23:04:52.649Z,99311.11
2022-12-28T23:07:19.573Z,99300.74
2022-12-28T23:09:46.498Z,99297.29
2022-12-28T23:12:13.381Z,99290.59
2022-12-28T23:14:59.166Z,99285.54
2022-12-28T23:17:26.818Z,99280.13
2022-12-28T23:20:12.576Z,99282.42
2022-12-28T23:22:58.473Z,99284.59
2022-12-28T23:25:44.368Z,99281.08
2022-12-28T23:28:13.009Z,99278.89
2022-12-28T23:30:41.705Z,99277.13
2022-12-28T23:33:08.714Z,99273.02
2022-12-28T23:35:35.520Z,99268.70
2022-12-28T23:38:02.352Z,99264.97
2022-12-28T23:40:29.307Z,99268.50
2022-12-28T23:42:56.459Z,99268.80
2022-12-28T23:45:23.407Z,99266.54
2022-12-28T23:47:52.087Z,99259.91
2022-12-28T23:50:19.493Z,99258.63
2022-12-28T23:52:46.580Z,99267.51
2022-12-28T23:55:13.547Z,99267.87
2022-12-28T23:57:40.400Z,99263.80
